Tiempo atmosférico en la estación meteorológica de Lanzarote Aeropuerto, Las Palmas (14 m.)



Fecha
DESCASC
Temp. máxima en grados centígrados (hora)
DESCASC
Temp. mínima en grados centígrados (hora)
DESCASC
Temp. media en grados centígrados
DESCASC
Racha de viento máxima en m/sg (hora)
DESCASC
Velocidad máxima media en intervalos de 10 minutos(hora)
DESCASC
Precipitaciones diarias en mm
DESCASC
Precipitaciones de 00:00 a 06:00 en mm
DESCASC
Precipitaciones de 06:00 a 12:00 en mm
DESCASC
Precipitaciones de 12:00 a 18:00 en mm
DESCASC
Precipitaciones de 18:00 a 24:00 en mm
DESCASC
16-06-2019 25.1 (12:30) 15.9 (06:30) 20.5 12.5 (11:10) 7.78 (14:40) 0 0 0 0 0
15-06-2019 26.3 (15:10) 16.6 (01:50) 21.4 13.33 (13:00) 8.33 (18:30) 0 0 0 0 0
14-06-2019 25.8 (16:50) 16.8 (03:40) 21.3 14.44 (20:50) 8.06 (20:40) 0 0 0 0 0
13-06-2019 25.6 (13:50) 17.9 (00:00) 21.8 13.33 (14:40) 8.89 (14:40) 0 0 0 0 0
12-06-2019 25 (13:50) 17.8 (00:00) 21.4 15.28 (10:00) 12.22 (08:00) 0 0 0 0 0
11-06-2019 25.6 (14:10) 18.7 (00:00) 22.2 18.06 (13:20) 12.78 (01:50) 0 0 0 0 0
10-06-2019 26 (12:50) 18.3 (00:00) 22.1 16.11 (16:40) 12.5 (17:50) 0 0 0 0 0
09-06-2019 25.3 (14:00) 17.7 (00:00) 21.5 16.11 (18:00) 11.39 (18:10) 0 0 0 0 0
08-06-2019 26.3 (15:00) 18.1 (00:00) 22.2 12.78 (15:40) 9.44 (15:30) 0 0 0 0 0
07-06-2019 27.4 (15:20) 17.9 (00:00) 22.6 13.33 (13:30) 9.17 (10:00) 0 0 0 0 0
06-06-2019 24.4 (16:20) 18.4 (00:00) 21.4 14.44 (17:10) 9.72 (17:20) 0 0 0 0 0
05-06-2019 27.1 (15:30) 19.2 (00:00) 23.2 14.44 (19:20) 11.11 (19:00) 0 0 0 0 0
04-06-2019 28.6 (13:30) 19.2 (00:00) 23.9 16.39 (04:10) 12.5 (04:10) 0 0 0 0 0
03-06-2019 31.7 (16:30) 20.6 (00:00) 26.2 16.39 (05:20) 12.5 (05:20) 0 0 0 0 0
02-06-2019 35.1 (16:50) 20.9 (00:00) 28 16.11 (21:10) 10 (17:50) 0 0 0 0 0
01-06-2019 25.8 (15:50) 18.8 (00:00) 22.3 11.67 (07:40) 7.22 (05:10) 0 0 0 0 0
31-05-2019 24.6 (18:00) 18 (00:00) 21.3 12.78 (18:10) 9.17 (20:20) 0 0 0 0 0
30-05-2019 27.9 (15:00) 17.4 (00:00) 22.6 13.89 (18:40) 9.17 (19:00) 0 0 0 0 0
29-05-2019 26.3 (15:40) 17.6 (00:00) 21.9 15 (11:20) 10.28 (20:00) 0 0 0 0 0
28-05-2019 26 (14:20) 18.1 (00:00) 22.1 18.61 (00:50) 13.89 (00:50) 0 0 0 0 0
27-05-2019 27.4 (13:50) 19 (00:00) 23.2 18.61 (21:30) 13.89 (20:30) 0.6 0 0 0 0.6
26-05-2019 26.7 (15:10) 17.7 (00:00) 22.2 15.28 (09:40) 11.39 (09:40) 0 0 0 0 0
25-05-2019 25.8 (14:20) 18.2 (00:00) 22 18.61 (00:40) 14.72 (02:30) 0 0 0 0 0
24-05-2019 27.1 (14:10) 18.1 (00:00) 22.6 20 (18:40) 15.83 (17:40) 0 0 0 0 0
23-05-2019 25 (15:00) 17.8 (00:00) 21.4 18.61 (16:10) 13.89 (19:10) 0 0 0 0 0
22-05-2019 25.7 (14:40) 18.4 (00:00) 22.1 16.94 (02:30) 13.33 (10:20) 0 0 0 0 0

Gráficas

Temp. máximas Temp. mínimas Temp. medias Precipitaciones Rachas de viento máximas Velocidades máximas media en intervalos de 10 minutos

Datos horarios

Fecha y hora oficial Temperatura (ºC) Velocidad del viento (km/h) Dirección del viento Racha (km/h) Dirección de racha Precipitación (mm) Presión (hPa) Tendencia (hPa) Humedad (%)
2019-06-20 23:00:00 20.7 23 Norte 39 Noroeste 0 1017 0.9 78
2019-06-20 22:00:00 20.9 25 Norte 41 Norte 0 1016.8 1.2 76
2019-06-20 21:00:00 21.4 25 Norte 41 Norte 0 1016.2 0.5 74
2019-06-20 20:00:00 22.4 28 Norte 45 Norte 0 1016.1 0.2 67
2019-06-20 19:00:00 24.1 33 Norte 50 Norte 0 1015.6 -0.1 62
2019-06-20 18:00:00 25.5 30 Norte 46 Noroeste 0 1015.7 -0.5 52
2019-06-20 17:00:00 26.5 31 Norte 46 Norte 0 1015.9 -0.7 49
2019-06-20 16:00:00 27 31 Norte 42 Norte 0 1015.7 -1.2 47
2019-06-20 15:00:00 27.2 29 Norte 46 Norte 0 1016.2 -0.9 45
2019-06-20 14:00:00 27.3 25 Norte 41 Norte 0 1016.6 -0.5 48
2019-06-20 13:00:00 26.9 25 Norte 42 Norte 0 1016.9 -0.1 52
2019-06-20 12:00:00 26.8 25 Norte 39 Noroeste 0 1017.1 0.3 51
2019-06-20 11:00:00 24.7 24 Norte 41 Noroeste 0 1017.1 0.5 62
2019-06-20 10:00:00 23.2 23 Norte 35 Noroeste 0 1017 0.6 69
2019-06-20 09:00:00 23.4 24 Norte 37 Norte 0 1016.8 0.7 69
2019-06-20 08:00:00 21.4 23 Norte 32 Norte 0 1016.6 0.3 78
2019-06-20 07:00:00 20 16 Norte 28 Norte 0 1016.4 -0.1 85
2019-06-20 06:00:00 20 17 Norte 26 Norte 0 1016.1 -0.7 85
2019-06-20 05:00:00 20 15 Norte 30 Norte 0 1016.3 -1 86
2019-06-20 04:00:00 20.2 14 Norte 26 Norte 0 1016.5 -1.1 84
2019-06-20 03:00:00 20.1 15 Norte 24 Norte 0 1016.8 -1 84
2019-06-20 02:00:00 20.3 18 Norte 26 Norte 0 1017.3 0 83
2019-06-20 01:00:00 20.4 19 Norte 28 Norte 0 1017.6 0.7 82
2019-06-20 00:00:00 20.6 19 Norte 28 Noroeste 0 1017.8 1.3 81
2019-06-19 23:00:00 20.9 15 Norte 28 Noroeste 0 1017.3 1.2 78
2019-06-19 22:00:00 21.4 15 Norte 33 Noroeste 0 1016.9 1 76
2019-06-19 21:00:00 22.5 17 Noroeste 39 Noroeste 0 1016.5 0.5 73
2019-06-19 20:00:00 23.5 17 Noroeste 46 Noroeste 0 1016.1 -0.2 68
2019-06-19 19:00:00 25 24 Noroeste 33 Noroeste 0 1015.9 -0.8 61
2019-06-19 18:00:00 26.6 19 Noroeste 37 Norte 0 1016 -0.8 54
2019-06-19 17:00:00 25.6 10 Noroeste 24 Sur 0 1016.3 -0.7 56
2019-06-19 16:00:00 24 20 Sur 32 Sur 0 1016.7 -0.5 72
2019-06-19 15:00:00 26.1 14 Sur 39 Noroeste 0 1016.8 -0.6 61
2019-06-19 14:00:00 27.8 19 Norte 35 Norte 0 1017 -0.3 46
2019-06-19 13:00:00 27.4 20 Norte 30 Norte 0 1017.2 0.1 47
2019-06-19 12:00:00 24.3 9 Sudeste 21 Sudeste 0 1017.4 0.5 67
2019-06-19 11:00:00 23.1 12 Este 26 Noroeste 0 1017.3 0.7 74
2019-06-19 10:00:00 22.2 17 Norte 37 Norte 0 1017.1 0.9 71
2019-06-19 09:00:00 21.7 14 Noroeste 21 Noroeste 0 1016.9 1.2 76
2019-06-19 08:00:00 19.6 9 Norte 13 Norte 0 1016.6 1.1 86
2019-06-19 07:00:00 18.3 9 Norte 13 Norte 0 1016.2 0.7 88
2019-06-19 06:00:00 18 9 Norte 15 Noroeste 0 1015.7 0 88
2019-06-19 05:00:00 18.6 10 Norte 15 Noroeste 0 1015.5 -0.7 89
2019-06-19 04:00:00 18.8 4 Noroeste 8 Norte 0 1015.5 -1.1 88
2019-06-19 03:00:00 19 6 Norte 11 Norte 0 1015.7 -1.3 87
2019-06-19 02:00:00 19.8 5 Norte 13 Norte 0 1016.2 -0.4 85
2019-06-19 01:00:00 20 7 Norte 13 Norte 0 1016.6 0.2 83
2019-06-19 00:00:00 21.1 7 Norte 26 Noroeste 0 1017 1.2 80
2019-06-18 23:00:00 21.3 9 Norte 35 Noroeste 0 1016.6 0.9 79
2019-06-18 22:00:00 22.2 13 Noroeste 32 Noroeste 0 1016.4 1 72
2019-06-18 21:00:00 22.1 6 Este 11 Sur 0 1015.8 0.2 85
2019-06-18 20:00:00 23.3 8 Sudeste 13 Sudeste 0 1015.7 -0.5 78
2019-06-18 19:00:00 23.3 8 Sudeste 13 Este 0 1015.4 -0.8 76
2019-06-18 18:00:00 22.9 7 Sudeste 13 Sudeste 0 1015.6 -0.6 79
2019-06-18 17:00:00 22.3 5 Sudeste 13 Sur 0 1016.2 -0.3 82
2019-06-18 16:00:00 22.9 11 Sur 15 Sur 0 1016.2 -0.6 76
2019-06-18 15:00:00 23.1 11 Sur 17 Sur 0 1016.2 -0.6 71
2019-06-18 14:00:00 23.7 13 Sudeste 18 Sur 0 1016.5 0.2 68
2019-06-18 13:00:00 23.2 12 Sudeste 18 Sudeste 0 1016.8 0.5 70
2019-06-18 12:00:00 22.9 13 Sudeste 18 Sudeste 0 1016.8 0.9 72
2019-06-18 11:00:00 23.1 13 Sudeste 17 Sudeste 0 1016.3 0.7 74
2019-06-18 10:00:00 22.4 8 Sur 15 Sur 0 1016.3 0.8 74
2019-06-18 09:00:00 21.5 8 Sudeste 11 Sudeste 0 1015.9 0.9 76
2019-06-18 08:00:00 20.1 5 Norte 18 Oeste 0 1015.6 0.7 80
2019-06-18 07:00:00 18.4 5 Noroeste 9 Noroeste 0 1015.5 0.4 83
2019-06-18 06:00:00 17.9 4 Oeste 8 Oeste 0 1015 -0.4 85
2019-06-18 05:00:00 17.7 0 Calma 5 Norte 0 1014.9 -1.1 83
2019-06-18 04:00:00 18.1 2 Norte 8 Norte 0 1015.1 -1.5 83
2019-06-18 03:00:00 18.1 6 Norte 9 Norte 0 1015.4 -1.3 79
2019-06-18 02:00:00 18.6 4 Nordeste 8 Nordeste 0 1016 -0.8 79
2019-06-18 01:00:00 19 0 Calma 8 Sur 0 1016.6 0.1 80
2019-06-18 00:00:00 19.5 0 Calma 8 Sudoeste 0 1016.7 0.7 79
2019-06-17 23:00:00 19.7 4 Sur 8 Sur 0 1016.8 0.9 77
2019-06-17 22:00:00 20.1 4 Sudeste 11 Sudeste 0 1016.5 0.6 77
2019-06-17 21:00:00 20.5 9 Este 13 Este 0 1016 -0.1 74
2019-06-17 20:00:00 21.8 10 Este 17 Sudeste 0 1015.9 -0.5 69
2019-06-17 19:00:00 22.3 12 Este 18 Este 0 1015.9 -0.7 66
2019-06-17 18:00:00 22.9 12 Sudeste 18 Este 0 1016.1 -0.7 64
2019-06-17 17:00:00 23.2 13 Este 18 Sudeste 0 1016.4 -0.6 62
2019-06-17 16:00:00 23.3 13 Sudeste 18 Sudeste 0 1016.6 -0.7 61
2019-06-17 15:00:00 22.8 13 Sudeste 18 Sudeste 0 1016.8 -0.6 62
2019-06-17 14:00:00 23 13 Sudeste 18 Sudeste 0 1017 -0.2 61
2019-06-17 13:00:00 22.9 13 Sudeste 18 Este 0 1017.3 0.3 62
2019-06-17 12:00:00 22.7 13 Sudeste 18 Este 0 1017.4 0.4 62
2019-06-17 11:00:00 21.8 11 Sudeste 17 Sudeste 0 1017.2 0.4 65
2019-06-17 10:00:00 21.3 10 Sudeste 15 Sudeste 0 1017 0.5 67
2019-06-17 09:00:00 20.2 4 Oeste 9 Norte 0 1017 0.4 68
2019-06-17 08:00:00 17.4 0 Calma 13 Norte 0 1016.8 0 80
2019-06-17 07:00:00 15.1 7 Norte 13 Norte 0 1016.5 -0.8 86
2019-06-17 06:00:00 15.5 7 Norte 13 Norte 0 1016.6 -1 85
2019-06-17 05:00:00 16.4 12 Norte 18 Norte 0 1016.8 -1.4 82
2019-06-17 04:00:00 16.8 12 Noroeste 13 Noroeste 0 1017.3 -1.4 81
2019-06-17 03:00:00 17.1 12 Noroeste 13 Noroeste 0 1017.6 -1.6 79
2019-06-17 02:00:00 17.6 10 Noroeste 13 Noroeste 0 1018.2 -0.7 78
2019-06-17 01:00:00 17.9 8 Norte 13 Norte 0 1018.7 0.4 76
2019-06-17 00:00:00 18.6 9 Norte 18 Noroeste 0 1019.2 1.4 76
2019-06-16 23:00:00 19.1 12 Norte 39 Noroeste 0 1018.9 1.3 74
2019-06-16 22:00:00 19.8 17 Noroeste 42 Noroeste 0 1018.3 1.2 71
2019-06-16 21:00:00 20.5 20 Norte 42 Noroeste 0 1017.8 0.6 68
2019-06-16 20:00:00 22.6 22 Norte 35 Norte 0 1017.6 0.3 57
2019-06-16 19:00:00 23.9 17 Norte 35 Norte 0 1017.1 -0.6 53
2019-06-16 18:00:00 22.7 19 Este 41 Este 0 1017.2 -0.9 61
2019-06-16 17:00:00 22.5 24 Este 37 Este 0 1017.3 -1.1 58
2019-06-16 16:00:00 22.8 24 Este 37 Este 0 1017.7 -1.3 56
2019-06-16 15:00:00 22.8 26 Este 41 Este 0 1018.1 -0.9 56
2019-06-16 14:00:00 22.8 26 Este 39 Este 0 1018.4 -0.3 55
2019-06-16 13:00:00 23.1 23 Este 33 Este 0 1019 0.6 56
2019-06-16 12:00:00 24.2 13 Norte 45 Noroeste 0 1019 1.1 51
2019-06-16 11:00:00 23.2 16 Norte 41 Noroeste 0 1018.7 0.8 54
2019-06-16 10:00:00 21.5 21 Norte 30 Norte 0 1018.4 0.8 59
2019-06-16 09:00:00 20.1 10 Norte 17 Nordeste 0 1017.9 0.8 62
2019-06-16 08:00:00 18.3 8 Norte 35 Noroeste 0 1017.9 1 74
2019-06-16 07:00:00 16.9 11 Noroeste 17 Noroeste 0 1017.6 0.6 76
2019-06-16 06:00:00 16.8 13 Noroeste 18 Noroeste 0 1017.1 -0.1 75
2019-06-16 05:00:00 17.3 13 Noroeste 18 Noroeste 0 1016.9 -1 75
2019-06-16 04:00:00 17.2 12 Noroeste 17 Noroeste 0 1017 -1.6 75
2019-06-16 03:00:00 17.6 12 Norte 22 Noroeste 0 1017.2 -1.9 74
2019-06-16 02:00:00 18.2 16 Noroeste 21 Noroeste 0 1017.9 -1 70
2019-06-16 01:00:00 18.8 11 Norte 28 Noroeste 0 1018.6 0.2 69
2019-06-16 00:00:00 19 9 Norte 37 Noroeste 0 1019.1 1.7 69
2019-06-15 23:00:00 19.1 18 Norte 35 Noroeste 0 1018.9 1.8 69
2019-06-15 22:00:00 19.4 18 Norte 39 Noroeste 0 1018.4 1.9 68
2019-06-15 21:00:00 20.1 21 Norte 46 Noroeste 0 1017.4 0.8 64
2019-06-15 20:00:00 21.8 26 Norte 39 Norte 0 1017.1 0.4 57
2019-06-15 19:00:00 23.1 27 Norte 41 Norte 0 1016.5 -0.5 52
2019-06-15 18:00:00 23.9 27 Norte 41 Norte 0 1016.6 -0.7 50
2019-06-15 17:00:00 25 26 Norte 41 Norte 0 1016.7 -0.7 48
2019-06-15 16:00:00 25 20 Norte 39 Norte 0 1017 -0.8 48
2019-06-15 15:00:00 25.8 14 Norte 46 Norte 0 1017.3 -0.9 43
2019-06-15 14:00:00 25.4 21 Norte 35 Este 0 1017.4 -0.5 44
2019-06-15 13:00:00 23.6 15 Nordeste 48 Nordeste 0 1017.8 0.3 48
2019-06-15 12:00:00 23.7 18 Nordeste 32 Nordeste 0 1018.2 0.6 48
2019-06-15 11:00:00 23.5 17 Nordeste 30 Nordeste 0 1017.9 0.3 47
2019-06-15 10:00:00 21.9 17 Nordeste 30 Nordeste 0 1017.5 0 52
2019-06-15 09:00:00 20 21 Norte 33 Norte 0 1017.6 0.2 64
2019-06-15 08:00:00 18.4 12 Norte 24 Noroeste 0 1017.6 0.3 72
2019-06-15 07:00:00 17.9 15 Norte 22 Norte 0 1017.5 0.2 73
2019-06-15 06:00:00 18.5 13 Norte 21 Norte 0 1017.4 -0.2 74
2019-06-15 05:00:00 18.2 9 Nordeste 17 Norte 0 1017.3 -0.8 76
2019-06-15 04:00:00 17.3 10 Nordeste 24 Norte 0 1017.3 -1.3 76
2019-06-15 03:00:00 16.9 12 Norte 17 Norte 0 1017.6 -1.2 74
2019-06-15 02:00:00 16.6 12 Norte 18 Norte 0 1018.1 -0.6 76
2019-06-15 01:00:00 17 12 Norte 21 Norte 0 1018.6 0.5 75
2019-06-15 00:00:00 18.1 18 Norte 26 Norte 0 1018.8 1.4 74
2019-06-14 23:00:00 18.5 15 Norte 30 Norte 0 1018.7 1.5 72
2019-06-14 22:00:00 19.3 21 Norte 37 Noroeste 0 1018.1 1.3 68
2019-06-14 21:00:00 20.2 28 Norte 52 Noroeste 0 1017.4 1 61
2019-06-14 20:00:00 21.9 28 Norte 39 Noroeste 0 1017.2 0.6 51
2019-06-14 19:00:00 23.3 25 Norte 37 Norte 0 1016.8 -0.1 45
2019-06-14 18:00:00 24.3 23 Norte 42 Noroeste 0 1016.4 -1 41
2019-06-14 17:00:00 25.1 21 Norte 33 Norte 0 1016.6 -1.2 39
2019-06-14 16:00:00 24.7 21 Norte 41 Norte 0 1016.9 -0.9 41
2019-06-14 15:00:00 22.9 16 Nordeste 32 Nordeste 0 1017.4 -0.3 53
2019-06-14 14:00:00 22.4 17 Este 32 Este 0 1017.8 0.3 58
2019-06-14 13:00:00 22.6 19 Nordeste 46 Nordeste 0 1017.8 0.3 51
2019-06-14 12:00:00 23.5 26 Norte 37 Norte 0 1017.7 0.7 53
2019-06-14 11:00:00 24.1 18 Norte 32 Norte 0 1017.5 1.2 42
2019-06-14 10:00:00 21.7 23 Norte 32 Norte 0 1017.5 1.8 54
2019-06-14 09:00:00 19.7 18 Norte 41 Noroeste 0 1017 1.6 66
2019-06-14 08:00:00 18.6 17 Norte 33 Norte 0 1016.3 0.9 71
2019-06-14 07:00:00 18 24 Noroeste 33 Noroeste 0 1015.7 0.4 72
2019-06-14 06:00:00 17.6 13 Norte 22 Noroeste 0 1015.4 -0.2 75
2019-06-14 05:00:00 17.3 12 Norte 22 Noroeste 0 1015.4 -0.8 76
2019-06-14 04:00:00 17 15 Norte 22 Norte 0 1015.3 -1.4 76
2019-06-14 03:00:00 17.3 15 Noroeste 21 Noroeste 0 1015.6 -1.3 75
2019-06-14 02:00:00 17.9 11 Noroeste 17 Noroeste 0 1016.2 -0.5 75
2019-06-14 01:00:00 17.8 12 Noroeste 18 Norte 0 1016.7 0.6 75
2019-06-14 00:00:00 18.1 14 Noroeste 35 Noroeste 0 1016.9 1.3 73
2019-06-13 23:00:00 18.8 16 Norte 35 Noroeste 0 1016.7 1.8 72
2019-06-13 22:00:00 19.3 20 Norte 41 Noroeste 0 1016.1 1.8 71
2019-06-13 21:00:00 19.9 17 Norte 39 Noroeste 0 1015.6 1.6 66
2019-06-13 20:00:00 20.9 26 Norte 42 Noroeste 0 1014.9 1 61
2019-06-13 19:00:00 22.6 31 Noroeste 45 Noroeste 0 1014.3 0.4 53
2019-06-13 18:00:00 24.2 30 Norte 45 Norte 0 1014 -0.3 47
2019-06-13 17:00:00 24.4 27 Norte 45 Norte 0 1013.9 -0.6 48
2019-06-13 16:00:00 24.9 30 Norte 48 Noroeste 0 1013.9 -0.5 46
2019-06-13 15:00:00 24.9 28 Norte 48 Norte 0 1014.3 0.2 48
2019-06-13 14:00:00 24.3 24 Norte 41 Norte 0 1014.5 0.7 48
2019-06-13 13:00:00 24.2 26 Norte 41 Noroeste 0 1014.4 0.7 47
2019-06-13 12:00:00 22.7 26 Norte 39 Norte 0 1014.1 1.1 51
2019-06-13 11:00:00 21.5 29 Norte 39 Norte 0 1013.8 1.3 62
2019-06-13 10:00:00 19.6 20 Norte 35 Norte 0 1013.7 1.8 73
2019-06-13 09:00:00 19.9 23 Noroeste 33 Norte 0 1013 1.4 70
2019-06-13 08:00:00 18.2 12 Norte 24 Noroeste 0 1012.5 1 75
2019-06-13 07:00:00 18.6 15 Noroeste 28 Noroeste 0 1011.9 0.1 74
2019-06-13 06:00:00 17.9 8 Norte 22 Norte 0 1011.6 -0.4 75
2019-06-13 05:00:00 18.7 16 Norte 26 Norte 0 1011.5 -1 74
2019-06-13 04:00:00 18.3 14 Noroeste 24 Noroeste 0 1011.8 -1 71
2019-06-13 03:00:00 18.4 14 Noroeste 24 Noroeste 0 1012 -1.1 72
2019-06-13 02:00:00 18 5 Norte 22 Norte 0 1012.5 -0.2 72
2019-06-13 01:00:00 18.4 13 Norte 33 Noroeste 0 1012.8 0.4 71
2019-06-13 00:00:00 18.3 14 Norte 30 Norte 0 1013.1 1.1 69
2019-06-12 23:00:00 18.7 15 Norte 37 Norte 0 1012.7 1.4 70
2019-06-12 22:00:00 19.4 23 Norte 41 Norte 0 1012.4 1.3 67
2019-06-12 21:00:00 19.8 24 Norte 42 Norte 0 1012 0.8 64
2019-06-12 20:00:00 20.4 30 Norte 45 Norte 0 1011.3 -0.2 63
2019-06-12 19:00:00 20.8 30 Norte 45 Norte 0 1011.1 -0.4 59
2019-06-12 18:00:00 21.8 32 Norte 48 Norte 0 1011.2 -0.6 58
2019-06-12 17:00:00 23.2 32 Norte 48 Norte 0 1011.5 -0.5 50
2019-06-12 16:00:00 23.5 31 Norte 50 Norte 0 1011.5 -0.6 51
2019-06-12 15:00:00 23.3 31 Norte 48 Norte 0 1011.8 -0.1 54
2019-06-12 14:00:00 24.4 33 Norte 54 Norte 0 1012 0 55
2019-06-12 13:00:00 23.1 33 Norte 52 Noroeste 0 1012.1 0.5 61
2019-06-12 12:00:00 21.5 36 Norte 54 Norte 0 1011.9 -- 74
2019-06-12 11:00:00 21.5 28 Norte 55 Norte 0 1012 1.4 65
2019-06-12 10:00:00 20.5 41 Norte 55 Norte 0 1011.6 1 75
2019-06-12 09:00:00 19 28 Norte 54 Norte 0 -- -- 85
2019-06-12 08:00:00 19.1 44 Norte 52 Norte 0 1010.6 -0.2 81
2019-06-12 07:00:00 18.6 32 Norte 42 Norte 0 1010.6 -0.5 85
2019-06-12 06:00:00 18.4 28 Norte 46 Norte 0 1010.5 -0.7 88
2019-06-12 05:00:00 17.9 31 Norte 45 Norte 0 1010.8 -1.2 92
2019-06-12 04:00:00 18.2 30 Norte 41 Norte 0 1011.1 -1.3 94
2019-06-12 03:00:00 19.1 30 Norte 45 Norte 0 1011.2 -1.6 85
2019-06-12 02:00:00 18.9 26 Norte 54 Norte 0 1012 -0.6 84
2019-06-12 01:00:00 19.4 31 Norte 52 Norte 0 1012.4 -0.1 82
2019-06-12 00:00:00 19.6 34 Norte 55 Norte 0 1012.8 0.1 80
2019-06-11 23:00:00 19.5 38 Norte 55 Norte 0 1012.6 0.1 83
2019-06-11 22:00:00 20.1 36 Norte 55 Norte 0 1012.5 0.2 77
2019-06-11 21:00:00 20.5 33 Norte 55 Norte 0 1012.7 -0.1 71
2019-06-11 20:00:00 21.4 33 Norte 58 Norte 0 1012.5 -0.6 67
2019-06-11 19:00:00 22.5 36 Norte 54 Norte 0 1012.3 -1.1 63
2019-06-11 18:00:00 22.7 42 Norte 58 Norte 0 1012.8 -1.2 61
2019-06-11 17:00:00 23.5 39 Norte 55 Norte 0 1013.1 -1.4 57
2019-06-11 16:00:00 24.1 35 Norte 55 Norte 0 1013.4 -1.1 53
2019-06-11 15:00:00 25.1 35 Norte 54 Norte 0 1014 -0.3 49
2019-06-11 14:00:00 25 40 Norte 65 Norte 0 1014.5 -0.2 49
2019-06-11 13:00:00 24.6 41 Norte 61 Norte 0 1014.5 0 52
2019-06-11 12:00:00 24.1 42 Norte 54 Norte 0 1014.3 -0.7 48
2019-06-11 11:00:00 22.6 32 Norte 52 Norte 0 1014.7 0.2 53
2019-06-11 10:00:00 20.9 35 Norte 46 Norte 0 1014.5 0.3 64
2019-06-11 09:00:00 20.1 27 Norte 42 Norte 0 1015 1 64
2019-06-11 08:00:00 19.5 29 Norte 45 Norte 0 1014.5 0.4 69
2019-06-11 07:00:00 19.2 31 Norte 50 Norte 0 1014.2 -0.4 66
2019-06-11 06:00:00 19 35 Norte 55 Norte 0 1014 -1.3 70
2019-06-11 05:00:00 18.9 37 Norte 58 Norte 0 1014.1 -1.6 73
2019-06-11 04:00:00 18.9 34 Norte 54 Norte 0 1014.6 -1.6 73
2019-06-11 03:00:00 18.7 39 Norte 55 Norte 0 1015.3 -1.5 75
2019-06-11 02:00:00 18.9 41 Norte 58 Norte 0 1015.7 -1.1 76
2019-06-11 01:00:00 19 33 Norte 52 Norte 0 1016.2 -0.6 77
2019-06-11 00:00:00 19.1 37 Norte 52 Norte 0 1016.8 0.7 74
2019-06-10 23:00:00 19.2 39 Norte 55 Norte 0 1016.8 1 73
2019-06-10 22:00:00 19.8 34 Norte 55 Norte 0 1016.8 0.8 75
2019-06-10 21:00:00 20.2 44 Norte 54 Norte 0 1016.1 -0.3 75
2019-06-10 20:00:00 21.6 41 Norte 58 Norte 0 1015.8 -1.2 63
2019-06-10 19:00:00 22.5 35 Norte 58 Norte 0 1016 -1.6 62
2019-06-10 18:00:00 24.1 38 Norte 52 Norte 0 1016.4 -1.4 55
2019-06-10 17:00:00 24.5 42 Norte 58 Norte 0 1017 -1.2 51
2019-06-10 16:00:00 24.8 39 Norte 54 Norte 0 1017.6 -1.1 53
2019-06-10 15:00:00 24.8 36 Norte 55 Norte 0 1017.8 -1.2 53
2019-06-10 14:00:00 24.8 34 Norte 50 Norte 0 1018.2 -0.9 52
2019-06-10 13:00:00 25.4 36 Norte 54 Norte 0 1018.7 -0.4 48
2019-06-10 12:00:00 23.4 35 Norte 46 Norte 0 1019 -0.1 58
2019-06-10 11:00:00 23 30 Norte 46 Norte 0 1019.1 0.5 60
2019-06-10 10:00:00 22.1 36 Norte 50 Norte 0 1019.1 0.5 61
2019-06-10 09:00:00 20.3 36 Norte 54 Norte 0 1019.1 0.6 68
2019-06-10 08:00:00 19.3 32 Norte 48 Norte 0 1018.6 0 69
2019-06-10 07:00:00 18.7 30 Norte 48 Norte 0 1018.6 -0.1 72
2019-06-10 06:00:00 19 36 Norte 50 Norte 0 1018.5 -0.8 76
2019-06-10 05:00:00 18.7 30 Norte 50 Norte 0 1018.6 -1.2 74
2019-06-10 04:00:00 18.4 32 Norte 50 Norte 0 1018.7 -1.8 74
2019-06-10 03:00:00 18.6 28 Norte 50 Norte 0 1019.3 -1.7 72
2019-06-10 02:00:00 19.1 30 Norte 48 Norte 0 1019.8 -0.6 71
2019-06-10 01:00:00 19.6 28 Norte 48 Norte 0 1020.5 0.5 69
2019-06-10 00:00:00 19.7 30 Norte 50 Norte 0 1021 1.3 68
2019-06-09 23:00:00 19.9 33 Norte 50 Norte 0 1020.4 0.9 69
2019-06-09 22:00:00 20 33 Norte 50 Norte 0 1020 0.7 71
2019-06-09 21:00:00 19.9 34 Norte 54 Norte 0 1019.7 0.3 67
2019-06-09 20:00:00 21.2 36 Norte 52 Norte 0 1019.5 -0.1 60
2019-06-09 19:00:00 22.4 39 Norte 55 Norte 0 1019.3 -0.6 55
2019-06-09 18:00:00 23.3 36 Norte 58 Norte 0 1019.4 -0.5 51
2019-06-09 17:00:00 24.2 37 Norte 54 Norte 0 1019.6 -0.7 49
2019-06-09 16:00:00 24.8 38 Norte 54 Norte 0 1019.9 -0.8 48
2019-06-09 15:00:00 24.9 33 Norte 54 Norte 0 1019.9 -0.7 48
2019-06-09 14:00:00 24.9 31 Norte 50 Norte 0 1020.3 -0.3 46
2019-06-09 13:00:00 24.2 38 Norte 54 Norte 0 1020.7 0.1 47
2019-06-09 12:00:00 22 30 Norte 46 Norte 0 1020.6 0.2 54
2019-06-09 11:00:00 21.9 31 Norte 45 Norte 0 1020.6 0.4 54
2019-06-09 10:00:00 21.3 29 Norte 41 Norte 0 1020.6 0.7 52
2019-06-09 09:00:00 19.6 22 Norte 32 Nordeste 0 1020.4 0.9 63
2019-06-09 08:00:00 19.4 16 Norte 30 Norte 0 1020.2 0.8 60
2019-06-09 07:00:00 19.1 20 Norte 33 Norte 0 1019.9 0.3 59
2019-06-09 06:00:00 19.1 24 Norte 37 Norte 0 1019.5 -0.5 69
2019-06-09 05:00:00 19.2 24 Norte 35 Norte 0 1019.4 -0.9 62
2019-06-09 04:00:00 19.2 23 Norte 35 Norte 0 1019.6 -0.8 69
2019-06-09 03:00:00 18.8 18 Norte 24 Norte 0 1020 -0.6 71
2019-06-09 02:00:00 18.2 14 Norte 26 Norte 0 1020.3 0 67
2019-06-09 01:00:00 18.4 18 Norte 41 Norte 0 1020.4 0.7 71
2019-06-09 00:00:00 19.4 29 Norte 45 Norte 0 1020.6 1.1 66
2019-06-08 23:00:00 18.9 21 Norte 33 Norte 0 1020.3 1.2 70
2019-06-08 22:00:00 19.3 21 Norte 42 Norte 0 1019.7 1 66
2019-06-08 21:00:00 20.2 30 Norte 42 Norte 0 1019.5 1.2 64
2019-06-08 20:00:00 21.1 28 Norte 41 Norte 0 1019.1 0.8 62
2019-06-08 19:00:00 22.4 28 Norte 45 Norte 0 1018.7 0.3 53
2019-06-08 18:00:00 23.7 27 Norte 42 Norte 0 1018.3 -0.2 48
2019-06-08 17:00:00 24.7 31 Norte 46 Norte 0 1018.3 -0.5 48
2019-06-08 16:00:00 24.9 32 Norte 46 Norte 0 1018.4 -0.7 49
2019-06-08 15:00:00 25.9 29 Norte 41 Norte 0 1018.5 -0.7 46
2019-06-08 14:00:00 25.2 20 Norte 37 Norte 0 1018.8 0 45
2019-06-08 13:00:00 24.7 20 Norte 39 Norte 0 1019.1 0.8 46
2019-06-08 12:00:00 23.7 23 Norte 41 Norte 0 1019.2 1.1 49
2019-06-08 11:00:00 22.7 24 Norte 37 Norte 0 1018.8 1.1 55
2019-06-08 10:00:00 22 25 Norte 41 Norte 0 1018.3 0.8 59
2019-06-08 09:00:00 20.2 28 Norte 39 Norte 0 1018.1 0.9 69
2019-06-08 08:00:00 19.1 24 Norte 37 Norte 0 1017.7 0.7 79
2019-06-08 07:00:00 18.4 22 Norte 33 Norte 0 1017.5 0.6 82
2019-06-08 06:00:00 18.5 15 Norte 30 Norte 0 1017.2 0.4 83
2019-06-08 05:00:00 18.9 20 Norte 39 Norte 0 1017 0.2 85
2019-06-08 04:00:00 19.2 29 Norte 39 Norte 0 1016.9 -0.1 85
2019-06-08 03:00:00 19.1 24 Norte 39 Norte 0 1016.8 -0.3 88
2019-06-08 02:00:00 19.4 24 Norte 42 Norte 0 1016.8 -0.5 86
2019-06-08 01:00:00 19.4 27 Norte 41 Norte 0 1017 0.2 85
2019-06-08 00:00:00 19.8 30 Norte 41 Norte 0 1017.1 0.7 83
2019-06-07 23:00:00 20.3 26 Norte 37 Norte 0 1017.3 1.1 82
2019-06-07 22:00:00 20.7 24 Norte 33 Norte 0 1016.8 1 80
2019-06-07 21:00:00 20.9 22 Norte 42 Norte 0 1016.4 0.7 78
2019-06-07 20:00:00 22 24 Norte 42 Norte 0 1016.2 0.5 71
2019-06-07 19:00:00 24 26 Norte 45 Norte 0 1015.8 0.2 61
2019-06-07 18:00:00 24.6 27 Norte 46 Norte 0 1015.7 -0.3 58
2019-06-07 17:00:00 25.3 27 Norte 45 Norte 0 1015.7 -0.6 56
2019-06-07 16:00:00 25.7 32 Norte 46 Norte 0 1015.6 -0.8 55
2019-06-07 15:00:00 26.3 26 Norte 45 Norte 0 1016 -0.4 49
2019-06-07 14:00:00 24.6 31 Norte 48 Norte 0 1016.3 0.3 53
2019-06-07 13:00:00 23.9 28 Norte 45 Norte 0 1016.4 0.7 56
2019-06-07 12:00:00 21.8 28 Norte 42 Norte 0 1016.4 1.1 65
2019-06-07 11:00:00 22 26 Norte 45 Norte 0 1016 0.8 64
2019-06-07 10:00:00 21.3 33 Norte 46 Norte 0 1015.7 0.7 62
2019-06-07 09:00:00 20.3 27 Norte 35 Norte 0 1015.3 0.5 68
2019-06-07 08:00:00 18.8 23 Norte 39 Norte 0 1015.2 0.6 78
2019-06-07 07:00:00 18.5 21 Norte 35 Norte 0 1015 0.2 83
2019-06-07 06:00:00 18.2 11 Norte 33 Norte 0 1014.8 -0.4 79
2019-06-07 05:00:00 18 13 Norte 33 Norte 0 1014.6 -1 77
2019-06-07 04:00:00 18.8 23 Norte 35 Norte 0 1014.8 -1.1 73
2019-06-07 03:00:00 18.6 25 Norte 39 Norte 0 1015.2 -0.7 74
2019-06-07 02:00:00 18.6 24 Norte 39 Norte 0 1015.6 -0.1 73
2019-06-07 01:00:00 18.7 28 Norte 41 Norte 0 1015.9 0.4 72
2019-06-07 00:00:00 18.6 30 Norte 41 Norte 0 1015.9 0.8 72
2019-06-06 23:00:00 18.8 26 Norte 37 Norte 0 1015.7 1 72
2019-06-06 22:00:00 19 26 Norte 42 Norte 0 1015.5 1.1 69
2019-06-06 21:00:00 19.4 29 Norte 41 Norte 0 1015.1 0.4 65
2019-06-06 20:00:00 20.8 31 Norte 48 Norte 0 1014.7 0.1 58
2019-06-06 19:00:00 22.4 32 Norte 48 Norte 0 1014.4 -0.2 51
2019-06-06 18:00:00 23.2 29 Norte 52 Norte 0 1014.7 -0.3 49
2019-06-06 17:00:00 23.3 34 Norte 48 Norte 0 1014.6 -0.7 48
2019-06-06 16:00:00 23.3 30 Norte 46 Norte 0 1014.6 -0.9 50
2019-06-06 15:00:00 21.7 30 Norte 50 Norte 0 1015 -0.4 58
2019-06-06 14:00:00 22 29 Norte 45 Norte 0 1015.3 0.1 55
2019-06-06 13:00:00 22 26 Norte 41 Norte 0 1015.5 0.4 53
2019-06-06 12:00:00 21.7 27 Norte 45 Norte 0 1015.4 0.5 53
2019-06-06 11:00:00 20.1 30 Norte 46 Norte 0 1015.2 1 62
2019-06-06 10:00:00 20 33 Norte 42 Norte 0 1015.1 1 65
2019-06-06 09:00:00 20.3 30 Norte 45 Norte 0 1014.9 0.9 55
2019-06-06 08:00:00 19.4 31 Norte 42 Norte 0 1014.2 0.2 68
2019-06-06 07:00:00 19.1 29 Norte 41 Norte 0 1014.1 -0.1 70
2019-06-06 06:00:00 19.1 24 Norte 41 Norte 0 1014 -0.3 71
2019-06-06 05:00:00 19.2 29 Norte 39 Norte 0 1014 -1.2 72
2019-06-06 04:00:00 19 25 Norte 41 Norte 0 1014.2 -1.7 64
2019-06-06 03:00:00 19.5 16 Norte 33 Norte 0 1014.3 -2.1 66
2019-06-06 02:00:00 19.5 23 Norte 32 Norte 0 1015.2 -1.1 71
2019-06-06 01:00:00 19.1 19 Norte 28 Norte 0 1015.9 0 73
2019-06-06 00:00:00 19.6 23 Norte 33 Norte 0 1016.4 1.3 71
2019-06-05 23:00:00 19.4 21 Norte 32 Norte 0 1016.3 1.6 76
2019-06-05 22:00:00 19.8 24 Norte 42 Norte 0 1015.9 1.4 74
2019-06-05 21:00:00 20.2 27 Norte 45 Norte 0 1015.1 0.5 73
2019-06-05 20:00:00 21.1 35 Norte 52 Norte 0 1014.7 -0.1 69
2019-06-05 19:00:00 22.2 40 Norte 50 Norte 0 1014.5 -0.4 70
2019-06-05 18:00:00 23.6 33 Norte 46 Norte 0 1014.6 -0.6 65
2019-06-05 17:00:00 24.8 35 Norte 46 Noroeste 0 1014.8 -0.6 61
2019-06-05 16:00:00 25.2 32 Norte 46 Norte 0 1014.9 -0.8 61
2019-06-05 15:00:00 26.5 33 Norte 45 Norte 0 1015.2 -0.7 56
2019-06-05 14:00:00 25.6 26 Norte 41 Norte 0 1015.4 -0.7 57
2019-06-05 13:00:00 24.4 28 Norte 39 Norte 0 1015.7 -0.5 62
2019-06-05 12:00:00 23.6 22 Norte 39 Norte 0 1015.9 0 64
2019-06-05 11:00:00 22.4 26 Norte 37 Norte 0 1016.1 0.4 70
2019-06-05 10:00:00 21.9 25 Norte 35 Norte 0 1016.2 0.7 73
2019-06-05 09:00:00 20.7 23 Norte 35 Norte 0 1015.9 0.8 81
2019-06-05 08:00:00 20.3 26 Norte 35 Norte 0 1015.7 0.5 83
2019-06-05 07:00:00 19.7 23 Norte 35 Norte 0 1015.5 0.1 85
2019-06-05 06:00:00 19.7 27 Norte 41 Norte 0 1015.1 -0.8 84
2019-06-05 05:00:00 19.6 19 Norte 33 Norte 0 1015.2 -1.4 86
2019-06-05 04:00:00 19.5 24 Norte 35 Norte 0 1015.4 -1.6 85
2019-06-05 03:00:00 19.6 26 Norte 35 Norte 0 1015.9 -1.2 85
2019-06-05 02:00:00 19.7 24 Norte 37 Norte 0 1016.6 -0.3 85
2019-06-05 01:00:00 20.1 24 Norte 41 Norte 0 1017 0.6 81
2019-06-05 00:00:00 19.9 24 Norte 39 Norte 0 1017.1 1.3 83
2019-06-04 23:00:00 20.1 28 Norte 41 Norte 0 1016.9 1.5 82
2019-06-04 22:00:00 20.2 23 Norte 39 Norte 0 1016.4 1.2 81
2019-06-04 21:00:00 20.8 32 Norte 50 Norte 0 1015.8 0.9 77
2019-06-04 20:00:00 22.1 31 Norte 46 Norte 0 1015.4 0.2 70
2019-06-04 19:00:00 24.1 24 Norte 42 Norte 0 1015.2 -0.2 63
2019-06-04 18:00:00 25.6 28 Norte 50 Norte 0 1014.9 -0.5 57
2019-06-04 17:00:00 25.8 34 Norte 48 Norte 0 1015.2 -0.5 57
2019-06-04 16:00:00 26.8 35 Norte 52 Norte 0 1015.4 -0.5 55
2019-06-04 15:00:00 27.4 34 Norte 50 Norte 0 1015.4 -0.2 53
2019-06-04 14:00:00 28 36 Norte 48 Norte 0 1015.7 0.5 51
2019-06-04 13:00:00 28 33 Norte 50 Norte 0 1015.9 1 49
2019-06-04 12:00:00 27.1 35 Norte 48 Norte 0 1015.6 1.5 53
2019-06-04 11:00:00 26.5 37 Norte 50 Norte 0 1015.2 1.6 51
2019-06-04 10:00:00 24.4 39 Norte 58 Norte 0 1014.9 1.5 59
2019-06-04 09:00:00 22.7 39 Norte 59 Norte 0 1014.1 1.5 65
2019-06-04 08:00:00 20.6 29 Norte 54 Norte 0 1013.6 1.1 75
2019-06-04 07:00:00 19.3 24 Norte 42 Norte 0 1013.4 1.3 86
2019-06-04 06:00:00 19.4 34 Norte 54 Norte 0 1012.6 -0.3 86
2019-06-04 05:00:00 19.6 39 Noroeste 59 Noroeste 0 1012.5 -1.4 86
2019-06-04 04:00:00 19.7 43 Noroeste 58 Noroeste 0 1012.1 -2.7 85
2019-06-04 03:00:00 19.9 36 Noroeste 52 Noroeste 0 1012.9 -2.3 85
2019-06-04 02:00:00 20.1 28 Norte 42 Norte 0 1013.9 -0.9 85
2019-06-04 01:00:00 20.4 28 Norte 41 Norte 0 1014.8 0.8 83
2019-06-04 00:00:00 20.6 27 Norte 42 Norte 0 1015.2 2.1 81
2019-06-03 23:00:00 21 27 Norte 41 Norte 0 1014.8 1.9 80
2019-06-03 22:00:00 21.4 23 Norte 39 Noroeste 0 1014 1.5 79
2019-06-03 21:00:00 22.2 25 Norte 45 Noroeste 0 1013.1 0.7 75
2019-06-03 20:00:00 23.8 32 Noroeste 42 Norte 0 1012.9 0.3 69
2019-06-03 19:00:00 26 30 Noroeste 37 Noroeste 0 1012.5 -0.2 62
2019-06-03 18:00:00 28.7 27 Noroeste 37 Norte 0 1012.4 -0.6 52
2019-06-03 17:00:00 30.9 17 Norte 30 Norte 0 1012.6 -- 44
2019-06-03 16:00:00 31.3 19 Norte 30 Norte 0 1012.7 -0.6 43
2019-06-03 15:00:00 28.6 11 Nordeste 33 Norte 0 1013 0.2 54
2019-06-03 14:00:00 -- -- -- -- -- -- -- -- --
2019-06-03 13:00:00 29.3 27 Norte 48 Norte 0 1013.3 1.4 48
2019-06-03 12:00:00 29.1 28 Norte 50 Noroeste 0 1012.8 1.5 48
2019-06-03 11:00:00 28 29 Norte 39 Norte 0 1012.9 1.1 52
2019-06-03 10:00:00 26.1 24 Noroeste 54 Noroeste 0 1011.9 1.2 55
2019-06-03 09:00:00 23.7 31 Norte 45 Noroeste 0 1011.3 1.3 66
2019-06-03 08:00:00 22.2 19 Norte 42 Noroeste 0 1011.8 1.5 69
2019-06-03 07:00:00 21.8 32 Noroeste 54 Norte 0 1010.7 -0.3 67
2019-06-03 06:00:00 21.4 42 Norte 59 Norte 0 1010 -1.2 74
2019-06-03 05:00:00 21.2 40 Norte 52 Norte 0 1010.3 -2 76
2019-06-03 04:00:00 21.7 40 Norte 50 Noroeste 0 1011 -2.1 71
2019-06-03 03:00:00 22.5 34 Norte 48 Norte 0 1011.2 -1.4 60
2019-06-03 02:00:00 23.1 29 Norte 48 Norte 0 1012.3 0.4 53
2019-06-03 01:00:00 24.4 25 Norte 48 Norte 0 1013.1 1.3 45
2019-06-03 00:00:00 22.6 36 Norte 46 Norte 0 1012.6 2.5 64
2019-06-02 23:00:00 23.1 32 Norte 46 Norte 0 1011.9 2.1 64
2019-06-02 22:00:00 23.5 21 Noroeste 58 Norte 0 1011.8 2.3 64
2019-06-02 21:00:00 24.2 34 Norte 54 Noroeste 0 1010.1 1 62
2019-06-02 20:00:00 28.8 32 Norte 45 Norte 0 1009.8 1.1 38
2019-06-02 19:00:00 28.1 22 Norte 45 Norte 0 1009.5 0 47
2019-06-02 18:00:00 28 32 Norte 52 Norte 0 1009.1 -0.8 48
2019-06-02 17:00:00 34.5 33 Norte 50 Noroeste 0 1008.7 -1.8 28
2019-06-02 16:00:00 34.5 27 Norte 42 Norte 0 1009.5 -1.2 28
2019-06-02 15:00:00 33.3 29 Norte 42 Norte 0 1009.9 -0.8 34
2019-06-02 14:00:00 33.8 24 Norte 39 Norte 0 1010.5 -0.3 33
2019-06-02 13:00:00 33.3 17 Nordeste 30 Norte 0 1010.7 -0.1 32
2019-06-02 12:00:00 33.9 19 Nordeste 32 Norte 0 1010.7 0 29
2019-06-02 11:00:00 31.9 23 Norte 33 Norte 0 1010.8 0.5 33
2019-06-02 10:00:00 28.6 21 Norte 30 Norte 0 1010.8 0.9 45
2019-06-02 09:00:00 26.3 12 Nordeste 24 Norte 0 1010.7 0.9 48
2019-06-02 08:00:00 22.9 21 Norte 30 Norte 0 1010.3 1 62
2019-06-02 07:00:00 22.3 20 Norte 33 Norte 0 1009.9 0.9 64
2019-06-02 06:00:00 22.5 5 Noroeste 17 Norte 0 1009.8 0 57
2019-06-02 05:00:00 23.2 3 Sudoeste 13 Este 0 1009.3 -1.1 49
2019-06-02 04:00:00 23.1 8 Este 24 Norte 0 1009 -2 53
2019-06-02 03:00:00 22.1 9 Norte 22 Norte 0 1009.8 -2 55
2019-06-02 02:00:00 21.4 9 Sur 13 Sudeste 0 1010.4 -1.4 56
2019-06-02 01:00:00 22.6 10 Oeste 13 Oeste 0 1011 0.1 47
2019-06-02 00:00:00 23.4 4 Este 17 Nordeste 0 1011.8 1.4 46
2019-06-01 23:00:00 23.7 11 Nordeste 26 Nordeste 0 1011.8 2.5 48
2019-06-01 22:00:00 23.4 11 Nordeste 22 Norte 0 1010.9 2 66
2019-06-01 21:00:00 22.4 9 Nordeste 18 Norte 0 1010.4 1.1 84
2019-06-01 20:00:00 22.5 9 Sudeste 17 Sur 0 1009.3 -0.2 83
2019-06-01 19:00:00 23.5 12 Sur 17 Sur 0 1008.9 -1 78
2019-06-01 18:00:00 24 11 Sur 22 Sur 0 1009.3 -1.2 77
2019-06-01 17:00:00 24.4 17 Sur 22 Sur 0 1009.5 -1.4 74
2019-06-01 16:00:00 24.7 14 Sudeste 30 Este 0 1009.9 -1.5 71
2019-06-01 15:00:00 25.1 21 Este 30 Este 0 1010.5 -1.1 69
2019-06-01 14:00:00 24.1 11 Sudeste 18 Sudeste 0 1010.9 -0.5 73
2019-06-01 13:00:00 23.5 12 Sudeste 17 Sudeste 0 1011.4 0.2 72
2019-06-01 12:00:00 23.2 12 Sur 18 Sur 0 1011.6 0.6 73
2019-06-01 11:00:00 22.7 13 Sur 17 Sur 0 1011.4 0.8 74
2019-06-01 10:00:00 21.8 9 Sudeste 18 Este 0 1011.2 1.4 78
2019-06-01 09:00:00 20.9 8 Noroeste 21 Noroeste 0 1011 1.3 79
2019-06-01 08:00:00 19.5 3 Sudeste 42 Noroeste 0 1010.6 1.4 84
2019-06-01 07:00:00 18.8 15 Norte 24 Norte 0 1009.8 0.4 87
2019-06-01 06:00:00 19.3 10 Noroeste 39 Noroeste 0 1009.7 -0.1 84
2019-06-01 05:00:00 19.3 26 Noroeste 37 Noroeste 0 1009.2 -0.7 86
2019-06-01 04:00:00 18.9 12 Norte 26 Noroeste 0 1009.4 -1 86
2019-06-01 03:00:00 19 19 Norte 28 Norte 0 1009.8 -1.9 87
2019-06-01 02:00:00 19.5 12 Nordeste 22 Este 0 1009.9 -1.9 82
2019-06-01 01:00:00 19.7 12 Oeste 28 Noroeste 0 1010.4 -0.7 81
2019-06-01 00:00:00 19.5 11 Norte 22 Noroeste 0 1011.7 1.2 83
2019-05-31 23:00:00 19.8 15 Norte 45 Noroeste 0 1011.8 2.4 82
2019-05-31 22:00:00 20 21 Norte 35 Noroeste 0 1011.1 1.8 82
2019-05-31 21:00:00 20.4 24 Norte 45 Noroeste 0 1010.5 0.7 81
2019-05-31 20:00:00 21.7 28 Noroeste 45 Noroeste 0 1009.4 -1 75
2019-05-31 19:00:00 22.9 32 Noroeste 46 Noroeste 0 1009.3 -1.4 70
2019-05-31 18:00:00 23.8 17 Noroeste 37 Noroeste 0 1009.8 -1.3 66
2019-05-31 17:00:00 23.1 15 Sudeste 18 Sudeste 0 1010.4 -1.1 71
2019-05-31 16:00:00 23.3 13 Sudeste 22 Este 0 1010.7 -1 70
2019-05-31 15:00:00 23.1 14 Sudeste 22 Sudeste 0 1011.1 -1.2 71
2019-05-31 14:00:00 23.1 14 Sudeste 24 Sur 0 1011.5 -0.4 71
2019-05-31 13:00:00 23.2 17 Sur 22 Sur 0 1011.7 0.3 71
2019-05-31 12:00:00 22.9 14 Sudeste 21 Sur 0 1012.3 2.2 71
2019-05-31 11:00:00 23.1 14 Sur 24 Sudoeste 0 1011.9 1.1 69
2019-05-31 10:00:00 22.3 15 Sudoeste 24 Sudoeste 0 1011.4 1.3 70
2019-05-31 09:00:00 20.8 9 Sur 33 Norte 0 1010.1 0 74
2019-05-31 08:00:00 19.1 10 Noroeste 26 Oeste 0 1010.8 0.2 82
2019-05-31 07:00:00 18.4 8 Noroeste 24 Norte 0 1010.1 -1 81
2019-05-31 06:00:00 18.4 17 Noroeste 30 Noroeste 0 1010.1 -1.7 80
2019-05-31 05:00:00 18.2 13 Noroeste 30 Noroeste 0 1010.6 -1.8 82
2019-05-31 04:00:00 18.2 18 Noroeste 30 Noroeste 0 1011.1 -1.5 84
2019-05-31 03:00:00 18.5 19 Noroeste 30 Noroeste 0 1011.8 -0.7 82
2019-05-31 02:00:00 18.7 23 Norte 41 Norte 0 1012.4 -0.5 83
2019-05-31 01:00:00 19 25 Norte 39 Noroeste 0 1012.6 0 82
2019-05-31 00:00:00 19.3 17 Noroeste 33 Noroeste 0 1012.5 0.9 79
2019-05-30 23:00:00 19.4 26 Noroeste 41 Norte 0 1012.9 1.6 79
2019-05-30 22:00:00 20 25 Noroeste 42 Norte 0 1012.6 1.6 76
2019-05-30 21:00:00 20.6 18 Norte 39 Noroeste 0 1011.6 0.5 72
2019-05-30 20:00:00 21.8 29 Noroeste 45 Noroeste 0 1011.3 -0.3 69
2019-05-30 19:00:00 23.4 33 Noroeste 50 Noroeste 0 1011 -1 62
2019-05-30 18:00:00 24.9 15 Oeste 35 Norte 0 1011.1 -1.2 59
2019-05-30 17:00:00 25.5 14 Sur 37 Noroeste 0 1011.6 -1 59
2019-05-30 16:00:00 24.9 18 Sur 41 Norte 0 1012 -1 65
2019-05-30 15:00:00 27.2 16 Oeste 37 Oeste 0 1012.3 -0.8 52
2019-05-30 14:00:00 26.6 17 Noroeste 33 Norte 0 1012.6 -0.6 51
2019-05-30 13:00:00 25.9 24 Norte 45 Norte 0 1013 0.3 54
2019-05-30 12:00:00 24 22 Noroeste 39 Noroeste 0 1013.1 0.6 60
2019-05-30 11:00:00 23 21 Norte 35 Norte 0 1013.2 1.2 64
2019-05-30 10:00:00 21.6 24 Norte 35 Noroeste 0 1012.7 0.8 69
2019-05-30 09:00:00 20.2 13 Noroeste 39 Noroeste 0 1012.5 1 73
2019-05-30 08:00:00 18.4 22 Noroeste 35 Noroeste 0 1012 0.6 81
2019-05-30 07:00:00 17.6 22 Noroeste 39 Noroeste 0 1011.9 0 84
2019-05-30 06:00:00 17.5 22 Noroeste 35 Norte 0 1011.5 -1 82
2019-05-30 05:00:00 17.5 25 Noroeste 35 Norte 0 1011.4 -1.7 82
2019-05-30 04:00:00 17.6 21 Noroeste 39 Noroeste 0 1011.9 -2.1 82
2019-05-30 03:00:00 17.8 18 Noroeste 35 Noroeste 0 1012.5 -2 82
2019-05-30 02:00:00 17.8 20 Norte 37 Norte 0 1013.1 -1.2 81
2019-05-30 01:00:00 18.2 20 Norte 39 Norte 0 1014 0.8 80
2019-05-30 00:00:00 18.4 26 Norte 39 Noroeste 0 1014.5 2 80
2019-05-29 23:00:00 18.4 26 Norte 39 Norte 0 1014.3 2.3 80
2019-05-29 22:00:00 18.4 28 Norte 45 Noroeste 0 1013.2 1.3 79
2019-05-29 21:00:00 19.1 33 Norte 50 Noroeste 0 1012.5 0.7 77
2019-05-29 20:00:00 20.6 37 Norte 48 Norte 0 1012 -0.1 70
2019-05-29 19:00:00 22.6 32 Norte 42 Norte 0 1011.9 -0.5 63
2019-05-29 18:00:00 24.4 28 Norte 41 Noroeste 0 1011.8 -1 57
2019-05-29 17:00:00 25.4 30 Norte 42 Norte 0 1012.1 -1.3 53
2019-05-29 16:00:00 25.7 29 Norte 48 Norte 0 1012.4 -1.4 52
2019-05-29 15:00:00 25.8 30 Norte 45 Norte 0 1012.8 -1.1 51
2019-05-29 14:00:00 25.5 27 Norte 45 Noroeste 0 1013.4 -0.4 52
2019-05-29 13:00:00 24.5 29 Norte 46 Noroeste 0 1013.8 0.4 55
2019-05-29 12:00:00 23.7 27 Norte 54 Noroeste 0 1013.9 0.6 58
2019-05-29 11:00:00 22.8 29 Norte 41 Noroeste 0 1013.8 0.6 60
2019-05-29 10:00:00 21.8 24 Norte 39 Norte 0 1013.4 0.3 64
2019-05-29 09:00:00 19.9 27 Norte 41 Norte 0 1013.3 0.5 71
2019-05-29 08:00:00 18.8 25 Noroeste 35 Norte 0 1013.2 0.7 77
2019-05-29 07:00:00 17.7 18 Norte 35 Norte 0 1013.1 0.4 80
2019-05-29 06:00:00 17.7 21 Norte 39 Noroeste 0 1012.8 -0.3 80
2019-05-29 05:00:00 17.7 17 Noroeste 37 Norte 0 1012.5 -0.9 81
2019-05-29 04:00:00 17.9 23 Norte 41 Norte 0 1012.7 -1.2 81
2019-05-29 03:00:00 18 24 Noroeste 41 Noroeste 0 1013.1 -0.9 82
2019-05-29 02:00:00 18.3 24 Norte 37 Norte 0 1013.4 -0.7 82
2019-05-29 01:00:00 18.4 17 Norte 35 Norte 0 1013.9 0.2 81
2019-05-29 00:00:00 18.8 19 Norte 39 Norte 0 1014 0.7 80
2019-05-28 23:00:00 19.3 17 Norte 41 Norte 0 1014.1 1.3 78
2019-05-28 22:00:00 19.4 25 Norte 39 Norte 0 1013.7 1.2 77
2019-05-28 21:00:00 19.9 18 Norte 41 Noroeste 0 1013.3 0.9 77
2019-05-28 20:00:00 20.9 27 Norte 41 Norte 0 1012.8 0.6 73
2019-05-28 19:00:00 21.9 28 Norte 46 Norte 0 1012.5 0 69
2019-05-28 18:00:00 22.7 33 Noroeste 46 Noroeste 0 1012.4 -0.4 66
2019-05-28 17:00:00 24.2 33 Norte 48 Norte 0 1012.2 -0.5 60
2019-05-28 16:00:00 25 33 Norte 46 Norte 0 1012.5 -0.4 57
2019-05-28 15:00:00 25 31 Norte 46 Norte 0 1012.8 0 57
2019-05-28 14:00:00 25.1 32 Norte 45 Norte 0 1012.7 -0.2 57
2019-05-28 13:00:00 24.6 31 Norte 46 Norte 0 1012.9 0.2 58
2019-05-28 12:00:00 24.1 34 Norte 55 Norte 0 1012.8 0.4 61
2019-05-28 11:00:00 22.7 35 Norte 50 Norte 0 1012.9 0.9 66
2019-05-28 10:00:00 21.7 34 Norte 46 Norte 0 1012.7 1 69
2019-05-28 09:00:00 20.5 31 Norte 42 Norte 0 1012.4 1.2 76
2019-05-28 08:00:00 19 22 Norte 33 Norte 0 1012 1.3 81
2019-05-28 07:00:00 18.1 18 Norte 39 Norte 0 1011.7 1.8 84
2019-05-28 06:00:00 18.2 23 Norte 45 Norte 0 1011.2 1.6 84
2019-05-28 05:00:00 18.4 25 Norte 52 Noroeste 0 1010.7 0.6 84
2019-05-28 04:00:00 18.6 32 Norte 58 Norte 0 1009.9 -0.3 85
2019-05-28 03:00:00 18.8 42 Norte 67 Noroeste 0 1009.6 -1.1 84
2019-05-28 02:00:00 19 49 Noroeste 65 Noroeste 0 1010.1 -0.6 85
2019-05-28 01:00:00 19.1 46 Norte 67 Norte 0 1010.2 -0.3 84
2019-05-28 00:00:00 19.1 39 Norte 59 Norte 0 1010.7 0.9 84
2019-05-27 23:00:00 19.4 41 Norte 59 Norte 0.2 1010.7 0.9 83
2019-05-27 22:00:00 19.7 44 Norte 67 Noroeste 0 1010.5 0.7 82
2019-05-27 21:00:00 20 46 Norte 65 Norte 0 1009.8 -0.2 81
2019-05-27 20:00:00 21 42 Norte 59 Norte 0 1009.8 -0.5 76
2019-05-27 19:00:00 22.5 41 Norte 59 Norte 0.4 1009.8 -0.5 70
2019-05-27 18:00:00 24.3 42 Norte 58 Norte 0 1010 -0.6 65
2019-05-27 17:00:00 25.3 37 Norte 55 Norte 0 1010.3 -0.4 61
2019-05-27 16:00:00 26.3 40 Norte 55 Norte 0 1010.3 -0.9 57
2019-05-27 15:00:00 26.2 39 Norte 54 Norte 0 1010.6 -0.6 57
2019-05-27 14:00:00 27.1 40 Norte 54 Norte 0 1010.7 -0.2 54
2019-05-27 13:00:00 26.6 36 Norte 48 Norte 0 1011.2 0.5 53
2019-05-27 12:00:00 25.5 36 Norte 50 Norte 0 1011.2 0.8 57
2019-05-27 11:00:00 23.9 37 Norte 52 Norte 0 1010.9 1 63
2019-05-27 10:00:00 22.7 36 Norte 58 Norte 0 1010.7 1 68
2019-05-27 09:00:00 20.7 38 Norte 58 Noroeste 0 1010.4 0.8 78
2019-05-27 08:00:00 19.5 39 Norte 52 Noroeste 0 1009.9 0 83
2019-05-27 07:00:00 19 35 Norte 58 Noroeste 0 1009.7 -0.7 85
2019-05-27 06:00:00 19.1 44 Noroeste 55 Norte 0 1009.6 -0.8 86
2019-05-27 05:00:00 19.2 37 Noroeste 52 Noroeste 0 1009.9 -1.1 85
2019-05-27 04:00:00 19.3 38 Noroeste 54 Norte 0 1010.4 -1.1 85
2019-05-27 03:00:00 19.4 38 Noroeste 54 Norte 0 1010.4 -1.5 85
2019-05-27 02:00:00 19.5 39 Norte 58 Noroeste 0 1011 -0.8 85
2019-05-27 01:00:00 19.6 38 Norte 50 Noroeste 0 1011.5 0.3 84
2019-05-27 00:00:00 19.7 36 Noroeste 50 Norte 0 1011.9 1.1 83
2019-05-26 23:00:00 19.8 35 Noroeste 52 Noroeste 0 1011.8 0.7 83
2019-05-26 22:00:00 20 37 Norte 54 Norte 0 1011.2 0 82
2019-05-26 21:00:00 20.3 35 Norte 50 Norte 0 1010.8 -0.3 79
2019-05-26 20:00:00 21.5 36 Norte 46 Norte 0 1011.1 -0.1 74
2019-05-26 19:00:00 23.1 27 Norte 42 Norte 0 1011.2 -0.5 68
2019-05-26 18:00:00 24.2 28 Norte 42 Norte 0 1011.1 -0.8 64
2019-05-26 17:00:00 25.7 31 Norte 46 Norte 0 1011.2 -1.2 57
2019-05-26 16:00:00 26.3 28 Norte 50 Norte 0 1011.7 -1.4 56
2019-05-26 15:00:00 26.2 31 Norte 46 Noroeste 0 1011.9 -1.3 55
2019-05-26 14:00:00 26.1 30 Norte 45 Norte 0 1012.4 -0.5 55
2019-05-26 13:00:00 24.7 27 Norte 50 Noroeste 0 1013.1 1 58
2019-05-26 12:00:00 23.7 28 Norte 45 Norte 0 1013.2 1.1 61
2019-05-26 11:00:00 22.9 33 Norte 54 Noroeste 0 1012.9 1.2 63
2019-05-26 10:00:00 21.8 38 Norte 55 Noroeste 0 1012.1 0.6 66
2019-05-26 09:00:00 20.5 35 Norte 48 Norte 0 1012.1 0.7 71
2019-05-26 08:00:00 19.1 31 Norte 50 Noroeste 0 1011.7 0.5 79
2019-05-26 07:00:00 18.2 32 Noroeste 50 Noroeste 0 1011.5 -0.1 83
2019-05-26 06:00:00 18 25 Noroeste 42 Noroeste 0 1011.4 -0.8 84
2019-05-26 05:00:00 17.9 23 Norte 35 Norte 0 1011.2 -1.6 84
2019-05-26 04:00:00 17.9 15 Norte 28 Norte 0 1011.6 -1.8 84
2019-05-26 03:00:00 18.1 18 Norte 33 Norte 0 1012.2 -1.4 81
2019-05-26 02:00:00 18.4 22 Norte 33 Norte 0 1012.8 -0.9 81
2019-05-26 01:00:00 18.7 22 Norte 37 Norte 0 1013.4 -0.1 78
2019-05-26 00:00:00 19.4 27 Norte 39 Norte 0 1013.6 0.4 76
2019-05-25 23:00:00 19.5 28 Norte 41 Norte 0 1013.7 0.9 75
2019-05-25 22:00:00 19.5 27 Norte 41 Norte 0 1013.5 0.9 69
2019-05-25 21:00:00 19.5 27 Norte 48 Norte 0 1013.2 0.7 69
2019-05-25 20:00:00 20.8 28 Norte 46 Norte 0 1012.8 0.9 64
2019-05-25 19:00:00 21.2 29 Norte 54 Norte 0 1012.6 -0.3 62
2019-05-25 18:00:00 22.9 39 Norte 65 Noroeste 0 1012.5 -0.6 57
2019-05-25 17:00:00 23.3 44 Norte 59 Norte 0 1011.9 -1.7 55
2019-05-25 16:00:00 24.9 38 Norte 61 Norte 0 1012.9 -1.5 51
2019-05-25 15:00:00 25.1 44 Norte 52 Norte 0 1013.1 -1.6 50
2019-05-25 14:00:00 25.1 37 Norte 54 Norte 0 1013.6 -1 53
2019-05-25 13:00:00 24.5 35 Norte 55 Norte 0 1014.4 0.2 54
2019-05-25 12:00:00 23.7 38 Norte 52 Norte 0 1014.7 0.9 57
2019-05-25 11:00:00 22.8 37 Norte 54 Norte 0 1014.6 1.3 60
2019-05-25 10:00:00 20.8 41 Norte 52 Norte 0 1014.2 1 68
2019-05-25 09:00:00 19.7 36 Norte 52 Norte 0 1013.8 0.6 74
2019-05-25 08:00:00 18.9 37 Norte 58 Nordeste 0 1013.3 0.4 79
2019-05-25 07:00:00 18.5 30 Norte 48 Norte 0 1013.2 -0.1 80
2019-05-25 06:00:00 18.6 26 Norte 46 Norte 0 1013.2 0.5 85
2019-05-25 05:00:00 18.8 29 Norte 45 Norte 0 1012.9 -0.1 82
2019-05-25 04:00:00 18.5 28 Norte 59 Norte 0 1013.3 -0.2 83
2019-05-25 03:00:00 18.4 48 Norte 67 Norte 0 1012.7 -1 84
2019-05-25 02:00:00 18.3 48 Norte 63 Norte 0 1013 -0.1 84
2019-05-25 01:00:00 18.5 45 Norte 67 Norte 0 1013.5 0.7 84
2019-05-25 00:00:00 18.5 47 Norte 67 Norte 0 1013.7 1.2 84
2019-05-24 23:00:00 18.7 47 Norte 61 Norte 0 1013.1 1.3 84
2019-05-24 22:00:00 18.9 48 Norte 68 Norte 0 1012.8 0.9 81
2019-05-24 21:00:00 19.3 48 Norte 71 Norte 0 1012.5 0.4 80
2019-05-24 20:00:00 20.5 55 Norte 72 Norte 0 1011.8 -0.6 74
2019-05-24 19:00:00 22.1 51 Norte 72 Norte 0 1011.9 -0.6 69
2019-05-24 18:00:00 23.7 50 Norte 71 Norte 0 1012.1 -1.5 63
2019-05-24 17:00:00 25 51 Norte 71 Norte 0 1012.4 -1.5 57
2019-05-24 16:00:00 25.6 52 Norte 67 Norte 0 1012.5 -1.8 54
2019-05-24 15:00:00 25.9 44 Norte 59 Norte 0 1013.6 -0.8 55
2019-05-24 14:00:00 26.5 36 Norte 58 Norte 0 1013.9 -0.4 54
2019-05-24 13:00:00 26.4 40 Norte 59 Norte 0 1014.3 0.8 50
2019-05-24 12:00:00 25.4 44 Norte 58 Norte 0 1014.4 1.5 55
2019-05-24 11:00:00 24.2 42 Norte 59 Norte 0 1014.3 2.2 60
2019-05-24 10:00:00 22.5 45 Norte 65 Norte 0 1013.5 1.5 65
2019-05-24 09:00:00 20.8 51 Norte 68 Norte 0 1012.9 0.8 71
2019-05-24 08:00:00 18.8 46 Norte 63 Norte 0 1012.1 -0.5 84
2019-05-24 07:00:00 18.2 45 Norte 65 Norte 0 1012 -0.9 88
2019-05-24 06:00:00 18.1 40 Norte 55 Norte 0 1012.1 -0.9 88
2019-05-24 05:00:00 18.1 33 Norte 54 Noroeste 0 1012.6 -0.3 88
2019-05-24 04:00:00 18.4 33 Norte 52 Norte 0 1012.9 -0.1 85
2019-05-24 03:00:00 18.4 36 Norte 61 Norte 0 1013 -0.1 85
2019-05-24 02:00:00 18.6 43 Norte 65 Norte 0 1012.9 -0.6 84
2019-05-24 01:00:00 18.6 40 Norte 67 Norte 0 1013 -0.1 84
2019-05-24 00:00:00 18.6 40 Norte 59 Norte 0 1013.1 0.5 84
2019-05-23 23:00:00 18.7 39 Norte 61 Norte 0 1013.5 1 84
2019-05-23 22:00:00 18.8 40 Norte 59 Norte 0 1013.1 0.2 83
2019-05-23 21:00:00 19.3 44 Norte 65 Norte 0 1012.6 -0.5 80
2019-05-23 20:00:00 20.5 49 Norte 65 Norte 0 1012.5 -1 72
2019-05-23 19:00:00 22 43 Norte 65 Norte 0 1012.9 -1 66
2019-05-23 18:00:00 22.8 45 Norte 63 Norte 0 1013.1 -1 63
2019-05-23 17:00:00 23.6 39 Norte 67 Norte 0 1013.5 -0.7 59
2019-05-23 16:00:00 24.2 42 Norte 63 Norte 0 1013.9 -0.7 56
2019-05-23 15:00:00 24.7 44 Norte 61 Norte 0 1014.1 -0.7 53
2019-05-23 14:00:00 24.4 43 Norte 63 Norte 0 1014.2 -0.2 55
2019-05-23 13:00:00 23.7 42 Norte 65 Norte 0 1014.6 0 56
2019-05-23 12:00:00 23.3 38 Norte 61 Norte 0 1014.8 0.6 59
2019-05-23 11:00:00 21.9 44 Norte 61 Norte 0 1014.4 0.7 60
2019-05-23 10:00:00 21.2 41 Norte 55 Norte 0 1014.6 1 62
2019-05-23 09:00:00 20 34 Norte 54 Norte 0 1014.2 0.6 68
2019-05-23 08:00:00 18.7 37 Norte 50 Norte 0 1013.7 0 74
2019-05-23 07:00:00 18.1 31 Norte 48 Norte 0 1013.6 -0.1 74
2019-05-23 06:00:00 18.1 32 Norte 52 Norte 0 1013.6 -0.4 73
2019-05-23 05:00:00 18.1 26 Norte 54 Norte 0 1013.7 -0.7 75
2019-05-23 04:00:00 18.5 31 Norte 55 Norte 0 1013.7 -1.1 73
2019-05-23 03:00:00 18.4 37 Norte 58 Norte 0 1014 -1 71
2019-05-23 02:00:00 18.6 35 Norte 52 Norte 0 1014.4 -0.8 72
2019-05-23 01:00:00 18.7 36 Norte 58 Norte 0 1014.8 0.2 73
2019-05-23 00:00:00 18.8 38 Norte 54 Norte 0 1015 0.8 71
2019-05-22 23:00:00 19 41 Norte 54 Norte 0 1015.2 1.1 75
2019-05-22 22:00:00 19.3 34 Norte 54 Norte 0 1014.6 0.8 71
2019-05-22 21:00:00 19.6 34 Norte 50 Norte 0 1014.2 0.4 70
2019-05-22 20:00:00 21 32 Norte 52 Norte 0 1014.1 0.1 67
2019-05-22 19:00:00 22.2 40 Norte 55 Norte 0 1013.8 -0.3 61
2019-05-22 18:00:00 23.3 35 Norte 55 Norte 0 1013.8 -0.4 58
2019-05-22 17:00:00 23.4 35 Norte 52 Norte 0 1014 -0.7 61
2019-05-22 16:00:00 24.8 36 Norte 52 Norte 0 1014.1 -0.8 56
2019-05-22 15:00:00 25.3 35 Norte 52 Norte 0 1014.2 -0.9 55
2019-05-22 14:00:00 25.1 39 Norte 55 Nordeste 0 1014.7 0 56
2019-05-22 13:00:00 24.8 39 Norte 58 Norte 0 1014.9 0.5 54
2019-05-22 12:00:00 22.9 35 Norte 59 Norte 0 1015.1 1.2 62
2019-05-22 11:00:00 22 35 Norte 58 Norte 0 1014.7 1.2 65
2019-05-22 10:00:00 21.1 40 Norte 55 Norte 0 1014.4 1.2 70
2019-05-22 09:00:00 20.3 40 Norte 55 Norte 0 1013.9 1.3 68
2019-05-22 08:00:00 19.3 33 Norte 46 Norte 0 1013.5 0.8 76
2019-05-22 07:00:00 18.8 28 Norte 52 Norte 0 1013.2 0.2 80
2019-05-22 06:00:00 19 41 Norte 54 Norte 0 1012.6 -0.2 79
2019-05-22 05:00:00 18.8 35 Norte 54 Norte 0 1012.7 -0.6 81
2019-05-22 04:00:00 18.4 33 Norte 58 Norte 0 1013 -0.9 82
2019-05-22 03:00:00 18.5 40 Norte 61 Norte 0 1012.8 -0.8 82
2019-05-22 02:00:00 18.6 39 Norte 55 Norte 0 1013.3 -0.6 80
2019-05-22 01:00:00 18.6 33 Norte 54 Norte 0 1013.9 0.1 79
2019-05-22 00:00:00 18.6 35 Norte 50 Norte 0 1013.6 0.3 81